< < Back
Terminal Aerodrome Forecast


Current Version              Previous Versions:   1  2  3  4  5  6  7  8  9  

Terminal Aerodrome Forecast

521
FTUS42 KFFC 311100
TAFCSG
TAF
KCSG 311130Z 3112/0112 34005KT P6SM SKC
     FM311600 32008KT P6SM SCT120
     FM312000 31010G18KT P6SM BKN080
     FM010200 33016G26KT P6SM BKN025
     FM011000 33020G30KT P6SM BKN035=



Latest METAR

102
SAUS70 KWBC 311900 RRA
MTRCSG
METAR KCSG 311851Z 36009G17KT 10SM BKN070 BKN080 20/03 A2988 RMK AO2
SLP118 T02000028


USA.gov is the U.S. government's official web portal to all federal, state and local government web resources and services.